Saint-Ambroise, Canada
Current Conditions -  °F | °C
As of 11:00 AM on Monday 22 Dec 2014 (Local Time) from CYBG Reporting Station
Light Snow Light Snow  
Wind Chill: 12°   Ceiling: Unl
Heat Index: 12°   Visibility: 20mi
Dew Point:   Wind: 0mph
Humidity: 73%   Direction: NA
Pressure: 30.43"   Gusts: NA
Location:  48.55°N, 71.32°W
Report Text: CYBG 221600Z 00000KT 20SM -SN FEW008 FEW014 FEW090 M11/M15 A3043 RMK SF1SC2AC1 PCPN VRY LGT SLP319
Loading
Personal Weather Stations






























Interactive Weather Map New forecast layout! Learn more

10-Day Weather Forecast

Advertisements
Track Severe Weather on mobile